Time;durP1;ratioP1;P1;durP2;ratioP2;P2;SDS_P1;SDS_P2;PMS_P1;PMS_P2;Temp;Humidity;BMP_temperature;BMP_pressure;BME280_temperature;BME280_humidity;BME280_pressure;Samples;Min_cycle;Max_cycle;Signal;HPM_P1;HPM_P2
2022/08/30 00:01:05;;;;;;;9.15;4.70;;;;;;;14.57;91.89;97576.94;5047193;28;20055;-64
2022/08/30 00:03:35;;;;;;;6.75;4.72;;;;;;;14.44;92.22;97570.94;5066062;28;20040;-64
2022/08/30 00:06:05;;;;;;;8.55;4.65;;;;;;;14.46;92.86;97578.00;5048057;28;20531;-64
2022/08/30 00:08:32;;;;;;;11.50;4.72;;;;;;;14.44;92.63;97573.66;5047748;28;20049;-65
2022/08/30 00:11:00;;;;;;;8.05;4.90;;;;;;;14.42;92.70;97584.00;5046998;28;20577;-64
2022/08/30 00:13:27;;;;;;;9.07;5.07;;;;;;;14.42;92.68;97584.00;5047530;28;20363;-64
2022/08/30 00:15:54;;;;;;;7.35;4.65;;;;;;;14.26;93.56;97583.19;5058648;28;20048;-64
2022/08/30 00:18:21;;;;;;;10.20;5.15;;;;;;;14.37;93.05;97583.19;5061388;28;20047;-63
2022/08/30 00:20:51;;;;;;;9.20;4.85;;;;;;;14.53;92.20;97589.47;5046395;28;20068;-63
2022/08/30 00:23:18;;;;;;;7.72;4.32;;;;;;;14.57;91.86;97587.81;5047357;28;20037;-63
2022/08/30 00:25:44;;;;;;;8.55;4.50;;;;;;;14.68;90.78;97592.16;5044179;28;20099;-64
2022/08/30 00:28:12;;;;;;;9.57;4.65;;;;;;;14.67;91.02;97590.53;5037079;28;20049;-64
2022/08/30 00:30:40;;;;;;;7.10;4.97;;;;;;;14.74;90.65;97592.19;5047181;28;20309;-63
2022/08/30 00:33:06;;;;;;;7.40;4.93;;;;;;;14.73;90.44;97593.25;5061169;28;20052;-63
2022/08/30 00:35:33;;;;;;;7.78;4.65;;;;;;;14.68;90.30;97592.16;5046206;28;20459;-64
2022/08/30 00:38:00;;;;;;;8.30;4.68;;;;;;;14.72;90.65;97592.44;5046459;28;20107;-64
2022/08/30 00:40:27;;;;;;;9.93;4.70;;;;;;;14.74;90.17;97592.19;5046212;28;20041;-64
2022/08/30 00:42:59;;;;;;;11.48;5.20;;;;;;;14.60;90.67;97589.19;5047421;28;20037;-64
2022/08/30 00:45:40;;;;;;;6.90;4.40;;;;;;;14.49;91.20;97585.66;5057289;28;20037;-64
2022/08/30 00:48:06;;;;;;;7.78;5.20;;;;;;;14.27;92.55;97579.34;5059088;28;20070;-64
2022/08/30 00:50:38;;;;;;;9.23;4.63;;;;;;;14.24;93.34;97589.97;5046947;28;20467;-64
2022/08/30 00:53:09;;;;;;;11.98;4.97;;;;;;;14.16;93.48;97586.69;5046608;28;20412;-64
2022/08/30 00:55:36;;;;;;;9.82;5.32;;;;;;;14.14;93.73;97583.44;5046749;28;20037;-65
2022/08/30 00:58:07;;;;;;;7.45;5.03;;;;;;;14.08;93.60;97589.16;5045421;28;20049;-64
2022/08/30 01:00:34;;;;;;;8.02;4.78;;;;;;;14.03;94.15;97590.78;5045297;28;20052;-64
2022/08/30 01:03:02;;;;;;;6.63;4.43;;;;;;;14.16;93.64;97592.16;5055457;28;20074;-63
2022/08/30 01:05:29;;;;;;;8.30;4.57;;;;;;;14.26;92.89;97591.34;5066412;28;20040;-64
2022/08/30 01:07:55;;;;;;;9.02;4.50;;;;;;;14.38;91.88;97588.34;5038629;28;20612;-64
2022/08/30 01:10:22;;;;;;;6.93;4.57;;;;;;;14.42;91.60;97584.00;5044753;28;20045;-64
2022/08/30 01:12:48;;;;;;;8.60;4.50;;;;;;;14.37;91.79;97586.72;5044869;28;20044;-64
2022/08/30 01:15:15;;;;;;;6.40;4.28;;;;;;;14.31;92.34;97582.38;5053382;28;20048;-64
2022/08/30 01:17:43;;;;;;;9.05;4.72;;;;;;;14.36;91.88;97587.81;5066471;28;20045;-64
2022/08/30 01:20:22;;;;;;;9.30;4.45;;;;;;;14.35;91.63;97579.91;5048343;28;20451;-64
2022/08/30 01:22:48;;;;;;;8.13;4.68;;;;;;;14.46;90.83;97583.47;5047125;28;20052;-63
2022/08/30 01:25:22;;;;;;;7.68;4.63;;;;;;;14.36;91.22;97582.38;5045903;28;20044;-64
2022/08/30 01:27:56;;;;;;;6.60;4.80;;;;;;;14.44;90.48;97586.44;5046397;28;20102;-64
2022/08/30 01:30:23;;;;;;;9.18;5.40;;;;;;;14.48;90.51;97586.75;5046404;28;20051;-63
2022/08/30 01:32:56;;;;;;;9.85;4.70;;;;;;;14.50;90.14;97593.56;5055405;28;20045;-64
2022/08/30 01:35:23;;;;;;;9.73;4.82;;;;;;;14.50;90.24;97592.72;5046576;28;20543;-64
2022/08/30 01:37:50;;;;;;;8.65;4.90;;;;;;;14.50;90.57;97598.19;5045455;28;20593;-63
2022/08/30 01:40:18;;;;;;;8.70;4.63;;;;;;;14.45;90.55;97590.84;5046432;28;20103;-64
2022/08/30 01:42:45;;;;;;;7.65;5.05;;;;;;;14.44;90.39;97591.91;5045892;28;20227;-64
2022/08/30 01:45:12;;;;;;;7.10;4.60;;;;;;;14.42;90.53;97586.72;5051593;28;20040;-64
2022/08/30 01:47:39;;;;;;;9.25;4.70;;;;;;;14.35;91.13;97590.81;5048007;28;20567;-64
2022/08/30 01:50:07;;;;;;;6.68;4.35;;;;;;;14.31;91.01;97596.00;5045594;28;20504;-64
2022/08/30 01:52:34;;;;;;;6.45;4.70;;;;;;;14.31;91.14;97598.72;5045394;28;20041;-64
2022/08/30 01:55:01;;;;;;;8.45;5.10;;;;;;;14.27;91.45;97589.44;5045270;28;20037;-64
2022/08/30 01:57:27;;;;;;;9.88;5.07;;;;;;;14.25;91.63;97589.72;5045191;28;20037;-64
2022/08/30 01:59:54;;;;;;;6.60;4.28;;;;;;;14.44;90.29;97598.19;5045558;28;20052;-64
2022/08/30 02:02:24;;;;;;;6.95;4.80;;;;;;;14.42;90.25;97594.91;5053821;28;20040;-64
2022/08/30 02:04:52;;;;;;;10.85;5.60;;;;;;;14.28;91.14;97599.25;5053605;28;20036;-64
2022/08/30 02:07:20;;;;;;;6.85;4.68;;;;;;;14.24;90.95;97593.53;5045492;28;20045;-64
2022/08/30 02:09:47;;;;;;;8.50;5.30;;;;;;;14.27;90.83;97589.44;5045196;28;20443;-63
2022/08/30 02:12:14;;;;;;;7.47;4.32;;;;;;;14.28;90.85;97589.19;5045639;28;20044;-63
2022/08/30 02:14:40;;;;;;;7.50;4.30;;;;;;;14.36;90.64;97585.09;5046998;28;20352;-64
2022/08/30 02:17:08;;;;;;;11.70;5.18;;;;;;;14.28;90.65;97580.19;5052796;28;20053;-63
2022/08/30 02:19:35;;;;;;;8.10;4.78;;;;;;;14.21;91.11;97587.78;5045851;28;20048;-63
2022/08/30 02:22:02;;;;;;;8.88;4.43;;;;;;;14.23;91.13;97583.72;5045035;28;20091;-63
2022/08/30 02:24:28;;;;;;;7.28;4.88;;;;;;;14.17;91.31;97577.47;5045792;28;20034;-64
2022/08/30 02:26:55;;;;;;;8.70;5.10;;;;;;;14.08;92.03;97579.06;5045162;28;20041;-64
2022/08/30 02:29:23;;;;;;;9.63;5.10;;;;;;;14.07;92.42;97580.16;5044883;28;20049;-63
2022/08/30 02:31:50;;;;;;;7.50;5.00;;;;;;;14.15;92.03;97584.25;5049296;28;20041;-64
2022/08/30 02:34:17;;;;;;;6.35;4.28;;;;;;;14.11;91.95;97581.25;5044974;28;20041;-64
2022/08/30 02:36:44;;;;;;;8.13;4.70;;;;;;;14.17;91.92;97582.91;5045401;28;20043;-63
2022/08/30 02:39:12;;;;;;;8.25;4.97;;;;;;;14.08;92.14;97578.25;5045639;28;20037;-63
2022/08/30 02:41:39;;;;;;;8.00;4.85;;;;;;;14.09;92.31;97577.16;5045289;28;20041;-63
2022/08/30 02:44:07;;;;;;;8.57;4.78;;;;;;;14.11;91.57;97572.28;5047278;28;20045;-63
2022/08/30 02:46:34;;;;;;;7.22;4.70;;;;;;;14.09;91.87;97572.56;5058675;28;20504;-64
2022/08/30 02:49:00;;;;;;;9.32;4.82;;;;;;;14.15;91.94;97574.19;5048618;28;20463;-64
2022/08/30 02:51:47;;;;;;;7.75;4.50;;;;;;;14.23;90.98;97566.56;5047829;28;20064;-64
2022/08/30 02:54:18;;;;;;;7.70;4.45;;;;;;;14.26;90.79;97569.56;5048914;28;20037;-64
2022/08/30 02:56:48;;;;;;;10.18;5.07;;;;;;;14.14;91.16;97564.38;5048507;28;20408;-64
2022/08/30 02:59:16;;;;;;;9.68;5.07;;;;;;;14.13;91.19;97554.59;5048364;28;20045;-64
2022/08/30 03:01:43;;;;;;;8.90;5.10;;;;;;;14.04;91.91;97548.84;5051223;28;20118;-64
2022/08/30 03:04:09;;;;;;;6.60;4.70;;;;;;;13.99;92.16;97553.47;5068480;28;20052;-64
2022/08/30 03:06:36;;;;;;;8.10;4.65;;;;;;;13.99;92.17;97554.28;5046930;28;20041;-64
2022/08/30 03:09:03;;;;;;;10.90;5.35;;;;;;;14.00;91.99;97557.81;5032023;28;20539;-64
2022/08/30 03:11:30;;;;;;;11.23;5.47;;;;;;;13.98;92.11;97557.28;5043166;28;20091;-64
2022/08/30 03:13:57;;;;;;;7.80;5.03;;;;;;;13.87;92.66;97561.88;5048751;28;20447;-64
2022/08/30 03:16:23;;;;;;;6.70;4.78;;;;;;;13.76;93.56;97559.16;5049684;28;20531;-64
2022/08/30 03:18:50;;;;;;;7.47;4.95;;;;;;;13.77;93.48;97558.06;5048233;28;20049;-63
2022/08/30 03:21:16;;;;;;;8.02;5.13;;;;;;;13.75;93.69;97556.69;5048387;28;20099;-64
2022/08/30 03:23:43;;;;;;;8.40;5.50;;;;;;;13.70;94.11;97553.94;5045253;28;20099;-64
2022/08/30 03:26:13;;;;;;;10.27;5.15;;;;;;;13.60;94.43;97544.66;5047458;28;20090;-64
2022/08/30 03:28:42;;;;;;;7.18;4.93;;;;;;;13.53;95.06;97547.63;5047245;28;20390;-63
2022/08/30 03:31:08;;;;;;;7.93;4.78;;;;;;;13.52;95.07;97547.91;5047002;28;20393;-63
2022/08/30 03:33:36;;;;;;;11.18;5.75;;;;;;;13.47;95.24;97543.25;5050862;28;20102;-63
2022/08/30 03:36:02;;;;;;;7.38;4.95;;;;;;;13.44;95.44;97542.94;5047319;28;20398;-64
2022/08/30 03:38:29;;;;;;;8.00;5.03;;;;;;;13.44;95.34;97548.38;5048033;28;20682;-63
2022/08/30 03:40:56;;;;;;;7.93;5.22;;;;;;;13.46;95.33;97540.78;5047763;28;20496;-64
2022/08/30 03:43:24;;;;;;;14.88;6.45;;;;;;;13.49;95.55;97541.09;5047952;28;20087;-63
2022/08/30 03:45:51;;;;;;;10.23;4.88;;;;;;;13.51;95.37;97540.81;5059148;28;20037;-63
2022/08/30 03:48:17;;;;;;;8.55;5.32;;;;;;;13.52;96.04;97548.72;5063723;28;20045;-64
2022/08/30 03:50:44;;;;;;;10.50;5.93;;;;;;;13.49;95.13;97551.19;5046711;28;20049;-64
2022/08/30 03:53:11;;;;;;;8.50;5.03;;;;;;;13.51;95.13;97549.81;5048257;28;20055;-63
2022/08/30 03:55:37;;;;;;;8.45;5.15;;;;;;;13.43;95.63;97544.03;5045250;28;20052;-63
2022/08/30 03:58:04;;;;;;;8.23;5.90;;;;;;;13.39;95.67;97552.72;5045176;28;20049;-64
2022/08/30 04:00:30;;;;;;;11.15;5.47;;;;;;;13.40;95.73;97548.09;5044764;28;20455;-64
2022/08/30 04:02:57;;;;;;;9.45;5.82;;;;;;;13.29;96.17;97555.41;5059740;28;20051;-64
2022/08/30 04:05:23;;;;;;;9.63;5.47;;;;;;;13.27;96.42;97542.06;5050160;28;20045;-64
2022/08/30 04:07:50;;;;;;;11.25;5.70;;;;;;;13.33;95.95;97551.06;5045425;28;20067;-64
2022/08/30 04:10:20;;;;;;;10.82;5.10;;;;;;;13.38;95.68;97553.81;5046323;28;20554;-64
2022/08/30 04:12:48;;;;;;;6.95;5.30;;;;;;;13.37;95.73;97554.06;5047575;28;20049;-63
2022/08/30 04:15:17;;;;;;;9.38;5.80;;;;;;;13.44;95.23;97549.22;5053079;28;20033;-64
2022/08/30 04:17:44;;;;;;;9.88;5.50;;;;;;;13.39;95.46;97546.47;5053355;28;20462;-63
2022/08/30 04:20:10;;;;;;;12.27;5.60;;;;;;;13.28;96.05;97553.78;5046343;28;20058;-63
2022/08/30 04:22:37;;;;;;;7.70;5.50;;;;;;;13.24;96.11;97561.63;5047032;28;20086;-63
2022/08/30 04:25:05;;;;;;;8.18;4.97;;;;;;;13.24;95.85;97566.25;5047032;28;20044;-64
2022/08/30 04:27:32;;;;;;;8.88;5.80;;;;;;;13.22;96.63;97557.53;5046314;28;20048;-63
2022/08/30 04:29:58;;;;;;;8.90;6.00;;;;;;;13.20;96.27;97560.50;5046984;28;20045;-63
2022/08/30 04:32:25;;;;;;;10.73;5.35;;;;;;;13.16;96.61;97556.69;5056021;28;20041;-63
2022/08/30 04:34:58;;;;;;;9.07;5.78;;;;;;;13.16;96.41;97553.16;5055833;28;20471;-63
2022/08/30 04:37:25;;;;;;;9.55;5.68;;;;;;;13.18;96.33;97554.53;5047079;28;20153;-63
2022/08/30 04:40:01;;;;;;;12.43;5.97;;;;;;;13.24;96.32;97552.66;5046422;28;20048;-64
2022/08/30 04:42:30;;;;;;;8.93;5.50;;;;;;;13.24;96.37;97552.66;5047098;28;20508;-63
2022/08/30 04:44:59;;;;;;;12.23;6.85;;;;;;;13.20;96.37;97559.72;5050378;28;20056;-63
2022/08/30 04:47:25;;;;;;;11.32;6.57;;;;;;;13.25;95.85;97560.56;5066885;28;20557;-64
2022/08/30 04:49:52;;;;;;;12.07;6.47;;;;;;;13.30;95.58;97564.41;5054732;28;20043;-64
2022/08/30 04:52:19;;;;;;;11.88;6.70;;;;;;;13.33;95.41;97572.81;5045965;28;20102;-64
2022/08/30 04:54:45;;;;;;;14.50;6.63;;;;;;;13.29;95.81;97574.44;5046462;28;20040;-64
2022/08/30 04:57:12;;;;;;;8.80;5.97;;;;;;;13.35;95.25;97578.81;5044963;28;20033;-64
2022/08/30 04:59:38;;;;;;;9.25;5.97;;;;;;;13.28;95.81;97578.25;5044869;28;20102;-64
2022/08/30 05:02:05;;;;;;;9.55;5.97;;;;;;;13.22;96.23;97579.28;5052607;28;20086;-64
2022/08/30 05:04:31;;;;;;;7.57;5.93;;;;;;;13.10;97.19;97588.50;5059005;28;20045;-63
2022/08/30 05:06:58;;;;;;;9.43;6.40;;;;;;;13.18;96.71;97589.06;5046386;28;20060;-64
2022/08/30 05:09:24;;;;;;;9.80;5.57;;;;;;;13.30;95.84;97595.09;5046151;28;20439;-63
2022/08/30 05:11:51;;;;;;;7.95;6.03;;;;;;;13.33;95.78;97593.75;5045816;28;20037;-64
2022/08/30 05:14:17;;;;;;;10.82;6.53;;;;;;;13.39;95.42;97595.44;5046295;28;20048;-64
2022/08/30 05:16:45;;;;;;;10.52;6.70;;;;;;;13.47;95.26;97594.09;5045205;28;20088;-64
2022/08/30 05:19:11;;;;;;;9.50;6.47;;;;;;;13.60;94.52;97598.28;5046400;28;20045;-64
2022/08/30 05:21:39;;;;;;;9.90;5.95;;;;;;;13.62;94.61;97594.19;5045861;28;20037;-63
2022/08/30 05:24:06;;;;;;;7.22;5.15;;;;;;;13.76;94.17;97599.13;5046585;28;20069;-63
2022/08/30 05:26:36;;;;;;;10.73;5.90;;;;;;;13.92;93.32;97602.72;5045398;28;20044;-63
2022/08/30 05:29:03;;;;;;;9.10;5.72;;;;;;;13.97;92.34;97588.31;5045380;28;20059;-63
2022/08/30 05:31:32;;;;;;;11.07;6.03;;;;;;;13.98;92.24;97592.66;5047408;28;20049;-64
2022/08/30 05:34:00;;;;;;;8.98;6.15;;;;;;;14.03;92.58;97590.78;5061287;28;20104;-64
2022/08/30 05:36:29;;;;;;;9.90;6.40;;;;;;;14.17;92.74;97596.53;5036742;28;20455;-64
2022/08/30 05:38:56;;;;;;;8.00;5.65;;;;;;;14.26;92.88;97583.19;5030608;28;20083;-64
2022/08/30 05:41:24;;;;;;;9.77;5.78;;;;;;;14.21;92.71;97585.91;5045591;28;20051;-60
2022/08/30 05:43:57;;;;;;;7.13;5.30;;;;;;;14.25;93.18;97588.88;5045797;28;20037;-60
2022/08/30 05:46:28;;;;;;;8.57;5.47;;;;;;;14.33;92.69;97584.84;5058166;28;20070;-61
2022/08/30 05:48:55;;;;;;;8.90;6.03;;;;;;;14.51;91.24;97589.72;5045833;28;20098;-59
2022/08/30 05:51:24;;;;;;;8.07;5.28;;;;;;;14.63;90.69;97592.16;5046031;28;20040;-60
2022/08/30 05:53:52;;;;;;;11.85;5.75;;;;;;;14.77;90.99;97591.66;5045701;28;20098;-58
2022/08/30 05:56:22;;;;;;;9.93;6.00;;;;;;;14.79;90.34;97600.38;5047001;28;20092;-61
2022/08/30 05:58:51;;;;;;;10.38;5.45;;;;;;;14.75;91.22;97602.81;5045928;28;20048;-59
2022/08/30 06:01:24;;;;;;;7.13;5.28;;;;;;;14.81;92.27;97603.63;5045025;28;20098;-61
2022/08/30 06:03:53;;;;;;;9.25;5.72;;;;;;;15.03;91.56;97610.69;5044452;28;20041;-60
2022/08/30 06:06:20;;;;;;;11.10;5.35;;;;;;;15.19;90.79;97606.03;5039017;28;20041;-61
2022/08/30 06:08:48;;;;;;;8.27;5.55;;;;;;;15.37;89.78;97606.53;5043031;28;20048;-61
2022/08/30 06:11:18;;;;;;;9.43;5.80;;;;;;;15.55;88.05;97610.59;5041845;28;20048;-60
2022/08/30 06:13:45;;;;;;;11.05;6.50;;;;;;;15.68;86.92;97604.53;5044656;28;20041;-61
2022/08/30 06:16:14;;;;;;;9.45;5.72;;;;;;;15.81;86.92;97599.56;5050295;28;20102;-61
2022/08/30 06:18:41;;;;;;;7.85;5.32;;;;;;;15.94;87.25;97595.38;5043670;28;20091;-61
2022/08/30 06:21:34;;;;;;;9.48;6.03;;;;;;;16.13;86.55;97592.84;5048856;28;20052;-61
2022/08/30 06:24:03;;;;;;;10.15;5.22;;;;;;;16.24;87.06;97586.22;5049493;28;20049;-61
2022/08/30 06:26:31;;;;;;;8.93;5.15;;;;;;;16.14;86.05;97589.00;5044408;28;20045;-61
2022/08/30 06:29:02;;;;;;;10.23;5.40;;;;;;;16.15;88.80;97600.75;5045628;28;20175;-62
2022/08/30 06:31:29;;;;;;;10.15;5.15;;;;;;;16.21;87.93;97596.88;5050672;28;20478;-60
2022/08/30 06:33:55;;;;;;;7.95;5.40;;;;;;;16.35;87.51;97602.53;5069174;28;20071;-60
2022/08/30 06:36:24;;;;;;;9.48;4.93;;;;;;;16.34;88.35;97601.72;5055530;28;20044;-60
2022/08/30 06:38:55;;;;;;;9.25;6.43;;;;;;;16.30;87.16;97605.28;5049073;28;20102;-60
2022/08/30 06:41:28;;;;;;;8.20;6.10;;;;;;;16.38;86.02;97597.31;5048870;28;20405;-60
2022/08/30 06:43:56;;;;;;;8.95;5.55;;;;;;;16.52;86.41;97599.41;5048852;28;20558;-61
2022/08/30 06:46:29;;;;;;;9.75;5.93;;;;;;;16.72;84.16;97589.38;5061903;28;20055;-60
2022/08/30 06:48:56;;;;;;;8.90;4.85;;;;;;;16.88;83.72;97587.34;5045741;28;20037;-60
2022/08/30 06:51:26;;;;;;;9.43;5.57;;;;;;;17.09;82.44;97584.41;5047630;28;20044;-60
2022/08/30 06:53:53;;;;;;;10.43;5.80;;;;;;;17.29;80.03;97588.88;5048154;28;20102;-59
2022/08/30 06:56:20;;;;;;;9.27;5.80;;;;;;;17.51;78.97;97593.78;5048488;28;20555;-58
2022/08/30 06:58:48;;;;;;;10.57;5.32;;;;;;;17.77;78.44;97600.88;5047375;28;20055;-59
2022/08/30 07:01:22;;;;;;;8.70;5.32;;;;;;;18.02;77.52;97601.66;5048246;28;20068;-59
2022/08/30 07:03:49;;;;;;;13.13;5.75;;;;;;;18.31;74.75;97603.44;5029081;28;20543;-64
2022/08/30 07:06:17;;;;;;;10.02;5.07;;;;;;;18.49;73.53;97604.56;5041991;28;20033;-65
2022/08/30 07:08:45;;;;;;;8.50;5.28;;;;;;;18.65;72.69;97612.53;5047970;28;20049;-68
2022/08/30 07:11:11;;;;;;;9.18;4.88;;;;;;;18.79;71.74;97601.63;5048068;28;20045;-64
2022/08/30 07:13:38;;;;;;;7.80;5.25;;;;;;;18.99;71.98;97605.94;5040816;28;20052;-66
2022/08/30 07:16:12;;;;;;;8.85;5.18;;;;;;;19.11;70.43;97602.72;5046430;28;19928;-65
2022/08/30 07:18:54;;;;;;;9.93;4.78;;;;;;;19.26;70.42;97603.53;5047853;28;20076;-63
2022/08/30 07:21:25;;;;;;;10.57;5.70;;;;;;;19.38;70.07;97603.06;5048061;28;20045;-64
2022/08/30 07:23:53;;;;;;;7.85;5.03;;;;;;;19.28;70.00;97602.16;5047846;28;20048;-66
2022/08/30 07:26:24;;;;;;;8.00;5.15;;;;;;;19.39;70.27;97608.25;5046942;28;20049;-64
2022/08/30 07:28:51;;;;;;;9.83;5.33;;;;;;;19.45;70.66;97606.19;5047633;28;20049;-67
2022/08/30 07:31:22;;;;;;;8.18;5.35;;;;;;;19.60;70.89;97603.16;5047562;28;20120;-64
2022/08/30 07:33:49;;;;;;;10.27;5.22;;;;;;;19.70;69.95;97606.81;5045702;28;20041;-67
2022/08/30 07:36:16;;;;;;;9.18;5.60;;;;;;;19.71;69.80;97608.41;5046748;28;20668;-64
2022/08/30 07:38:46;;;;;;;11.15;5.72;;;;;;;19.76;69.76;97614.63;5047094;28;20052;-65
2022/08/30 07:41:39;;;;;;;8.55;6.20;;;;;;;19.71;69.93;97614.75;5047398;28;20044;-65
2022/08/30 07:44:06;;;;;;;11.63;6.40;;;;;;;19.70;69.56;97604.06;5047909;28;20041;-64
2022/08/30 07:46:34;;;;;;;11.23;6.20;;;;;;;19.76;69.74;97608.34;5048123;28;20107;-69
2022/08/30 07:49:00;;;;;;;13.90;6.30;;;;;;;19.84;70.66;97615.03;5047455;28;20083;-65
2022/08/30 07:51:30;;;;;;;19.45;7.13;;;;;;;19.87;70.15;97611.69;5047096;28;20048;-64
2022/08/30 07:53:57;;;;;;;10.77;5.75;;;;;;;19.95;69.51;97610.13;5047465;28;20504;-65
2022/08/30 07:56:24;;;;;;;13.32;6.43;;;;;;;20.04;69.41;97613.00;5047809;28;20037;-69
2022/08/30 07:58:51;;;;;;;15.15;6.45;;;;;;;20.14;69.91;97613.59;5047201;28;20037;-65
2022/08/30 08:01:19;;;;;;;9.48;5.53;;;;;;;20.27;69.08;97611.13;5046502;28;20037;-64
2022/08/30 08:03:46;;;;;;;13.55;5.85;;;;;;;20.38;68.55;97608.94;5058133;28;20675;-64
2022/08/30 08:06:15;;;;;;;12.75;6.63;;;;;;;20.50;68.29;97611.13;5046798;28;20294;-64
2022/08/30 08:08:44;;;;;;;9.90;5.38;;;;;;;20.64;67.93;97606.38;5047760;28;20056;-64
2022/08/30 08:11:18;;;;;;;11.27;5.93;;;;;;;20.80;67.35;97606.00;5044060;28;20462;-64
2022/08/30 08:13:47;;;;;;;12.50;5.50;;;;;;;20.91;66.28;97604.66;5046832;28;20041;-64
2022/08/30 08:16:22;;;;;;;14.98;7.07;;;;;;;21.11;66.00;97601.69;5063094;28;20266;-68
2022/08/30 08:18:49;;;;;;;8.80;5.88;;;;;;;21.25;65.42;97607.91;5055457;28;20140;-65
2022/08/30 08:21:16;;;;;;;12.23;6.05;;;;;;;21.35;65.14;97609.56;5047649;28;20056;-67
2022/08/30 08:23:43;;;;;;;11.25;6.78;;;;;;;21.49;64.32;97603.94;5046874;28;20120;-65
2022/08/30 08:26:10;;;;;;;13.38;5.70;;;;;;;21.64;63.92;97608.19;5046988;28;20484;-63
2022/08/30 08:28:36;;;;;;;9.38;5.50;;;;;;;21.76;62.92;97606.81;5047817;28;20068;-67
2022/08/30 08:31:15;;;;;;;12.57;6.07;;;;;;;21.84;62.25;97606.00;5047837;28;20098;-63
2022/08/30 08:33:43;;;;;;;12.48;7.07;;;;;;;21.84;62.27;97608.78;5046593;28;20252;-66
2022/08/30 08:36:09;;;;;;;12.68;5.47;;;;;;;21.96;62.10;97606.22;5046233;28;20048;-64
2022/08/30 08:38:36;;;;;;;13.07;5.38;;;;;;;22.02;61.40;97608.81;5046098;28;20044;-64
2022/08/30 08:41:15;;;;;;;12.90;6.03;;;;;;;22.11;60.81;97608.81;5046368;28;20068;-64
2022/08/30 08:43:42;;;;;;;13.70;6.43;;;;;;;22.15;60.41;97613.34;5047115;28;20420;-67
2022/08/30 08:46:35;;;;;;;16.02;6.40;;;;;;;22.20;61.04;97607.72;5060071;28;20036;-63
2022/08/30 08:49:06;;;;;;;10.80;5.95;;;;;;;22.33;60.86;97603.16;5053971;28;20052;-64
2022/08/30 08:54:29;;;;;;;12.40;6.47;;;;;;;22.47;60.64;97604.94;5045845;28;19943;-64
2022/08/30 08:56:56;;;;;;;12.10;6.82;;;;;;;22.52;60.71;97601.22;5044838;28;20045;-65
2022/08/30 08:59:22;;;;;;;14.25;6.43;;;;;;;22.64;60.92;97601.41;5036993;28;20046;-64
2022/08/30 09:01:49;;;;;;;9.48;6.50;;;;;;;22.63;59.82;97596.19;5043786;28;20032;-65
2022/08/30 09:04:21;;;;;;;11.20;5.40;;;;;;;22.73;59.78;97596.66;5051848;28;20423;-63
2022/08/30 09:06:57;;;;;;;12.88;6.30;;;;;;;22.81;59.55;97597.00;5045351;28;20041;-63
2022/08/30 09:09:30;;;;;;;10.63;6.07;;;;;;;22.87;59.63;97598.44;5041503;28;20075;-67
2022/08/30 09:11:57;;;;;;;11.60;6.68;;;;;;;22.81;59.27;97599.75;5045936;28;20033;-63
2022/08/30 09:14:31;;;;;;;12.18;6.20;;;;;;;22.88;58.53;97593.72;5046381;28;20040;-63
2022/08/30 09:17:08;;;;;;;10.43;5.93;;;;;;;22.95;58.69;97591.25;5045479;28;20045;-65
2022/08/30 09:19:37;;;;;;;11.90;6.40;;;;;;;22.94;58.23;97589.63;5036262;28;20399;-65
2022/08/30 09:22:15;;;;;;;10.73;7.22;;;;;;;23.03;58.33;97592.41;5042122;28;20105;-67
2022/08/30 09:24:49;;;;;;;9.43;5.93;;;;;;;23.15;57.12;97588.94;5044055;28;20490;-65
2022/08/30 09:27:23;;;;;;;9.48;5.75;;;;;;;23.29;56.97;97584.00;5045270;28;20044;-64
2022/08/30 09:29:56;;;;;;;9.18;5.80;;;;;;;23.40;57.36;97578.94;5042925;28;20037;-69
2022/08/30 09:32:25;;;;;;;9.93;6.07;;;;;;;23.47;56.30;97583.94;5039892;28;20049;-63
2022/08/30 09:34:52;;;;;;;13.50;7.10;;;;;;;23.47;56.32;97572.91;5044814;28;20752;-67
2022/08/30 09:37:26;;;;;;;9.52;6.13;;;;;;;23.57;55.76;97574.47;5045069;28;20463;-65
2022/08/30 09:39:53;;;;;;;10.20;5.60;;;;;;;23.66;55.71;97569.69;5046597;28;20110;-63
2022/08/30 09:42:25;;;;;;;8.75;5.35;;;;;;;23.69;55.42;97573.78;5044605;28;20075;-67
2022/08/30 09:44:52;;;;;;;12.38;5.97;;;;;;;23.66;55.44;97566.94;5042323;28;20052;-66
2022/08/30 09:47:27;;;;;;;8.15;5.43;;;;;;;23.75;54.87;97564.13;5047458;28;20033;-64
2022/08/30 09:50:19;;;;;;;9.48;5.18;;;;;;;23.89;53.37;97570.22;5045642;28;20078;-69
2022/08/30 09:53:17;;;;;;;7.10;4.55;;;;;;;24.01;53.59;97561.19;5045240;28;20051;-65
2022/08/30 09:56:06;;;;;;;9.10;5.53;;;;;;;24.02;52.27;97564.75;5041421;28;20037;-67
2022/08/30 09:58:47;;;;;;;8.90;4.63;;;;;;;23.99;52.13;97557.16;5045202;28;20049;-65
2022/08/30 10:01:35;;;;;;;8.43;4.70;;;;;;;24.08;51.31;97559.84;5044973;28;20126;-65
2022/08/30 10:04:08;;;;;;;6.75;5.03;;;;;;;24.11;50.84;97556.44;5045011;28;20099;-65
2022/08/30 10:06:35;;;;;;;8.00;4.82;;;;;;;24.26;51.22;97549.47;5045271;28;20575;-65
2022/08/30 10:09:21;;;;;;;9.00;5.05;;;;;;;24.15;50.41;97549.09;5044148;28;20466;-64
2022/08/30 10:12:11;;;;;;;8.27;4.60;;;;;;;24.23;51.52;97553.75;5045050;28;20048;-64
2022/08/30 10:14:50;;;;;;;9.50;4.88;;;;;;;24.39;51.51;97547.56;5047132;28;20041;-65
2022/08/30 10:17:44;;;;;;;6.82;4.45;;;;;;;24.62;51.04;97547.22;5064631;28;20033;-64
2022/08/30 10:20:20;;;;;;;8.65;4.82;;;;;;;24.61;50.14;97546.38;5032063;28;20053;-64
2022/08/30 10:22:59;;;;;;;10.95;5.15;;;;;;;24.68;50.58;97545.81;5025299;28;20046;-64
2022/08/30 10:25:32;;;;;;;8.15;5.00;;;;;;;24.77;49.78;97535.47;5042639;28;20048;-64
2022/08/30 10:28:09;;;;;;;7.10;4.38;;;;;;;24.87;49.86;97536.22;5045296;28;20103;-64
2022/08/30 10:30:39;;;;;;;7.70;4.13;;;;;;;24.94;48.49;97528.97;5043604;28;20045;-64
2022/08/30 10:33:16;;;;;;;12.18;4.85;;;;;;;24.96;49.05;97534.16;5055601;28;20115;-64
2022/08/30 10:35:52;;;;;;;5.60;4.30;;;;;;;25.10;48.97;97531.06;5044663;28;20071;-68
2022/08/30 10:38:30;;;;;;;7.53;4.97;;;;;;;25.19;48.22;97520.69;5044536;28;20035;-64
2022/08/30 10:41:15;;;;;;;6.97;4.43;;;;;;;25.04;48.55;97521.34;5044100;28;20045;-64
2022/08/30 10:43:46;;;;;;;9.32;4.88;;;;;;;25.09;47.33;97514.78;5038739;28;20044;-63
2022/08/30 10:46:35;;;;;;;6.97;4.20;;;;;;;25.20;47.79;97510.41;5041124;28;20075;-63
2022/08/30 10:49:07;;;;;;;11.88;4.43;;;;;;;25.26;47.79;97516.53;5036297;28;20041;-64
2022/08/30 10:51:51;;;;;;;7.65;4.60;;;;;;;25.38;46.36;97512.94;5044305;28;20492;-63
2022/08/30 10:54:30;;;;;;;7.50;4.47;;;;;;;25.50;46.69;97507.38;5045308;28;20040;-63
2022/08/30 10:56:58;;;;;;;9.68;3.83;;;;;;;25.65;45.36;97518.97;5043734;28;20063;-64
2022/08/30 10:59:26;;;;;;;6.38;3.63;;;;;;;25.63;44.62;97510.16;5044404;28;20132;-64
2022/08/30 11:02:22;;;;;;;7.25;4.28;;;;;;;25.77;43.98;97502.31;5042563;28;20127;-64
2022/08/30 11:05:06;;;;;;;7.28;4.38;;;;;;;25.82;43.79;97498.47;5022261;28;20072;-64
2022/08/30 11:07:51;;;;;;;6.45;4.20;;;;;;;25.76;44.05;97500.66;5036855;28;20072;-64
2022/08/30 11:10:41;;;;;;;6.72;3.88;;;;;;;25.90;43.83;97507.81;5040917;28;20041;-63
2022/08/30 11:13:22;;;;;;;6.35;3.92;;;;;;;25.95;42.90;97502.03;5046966;28;20660;-64
2022/08/30 11:16:14;;;;;;;6.85;3.63;;;;;;;26.05;42.46;97506.28;5043704;28;20037;-64
2022/08/30 11:18:46;;;;;;;5.30;3.78;;;;;;;26.06;42.75;97500.34;5028546;28;20041;-64
2022/08/30 11:21:40;;;;;;;6.80;3.70;;;;;;;26.28;43.25;97503.78;5047670;28;20124;-66
2022/08/30 11:24:18;;;;;;;7.05;3.78;;;;;;;26.41;41.76;97507.31;5047669;28;20048;-63
2022/08/30 11:26:44;;;;;;;5.35;3.80;;;;;;;26.36;41.16;97507.56;5047299;28;20049;-66
2022/08/30 11:29:33;;;;;;;7.55;4.25;;;;;;;26.02;41.30;97493.91;5046803;28;20045;-65
2022/08/30 11:32:12;;;;;;;6.57;3.88;;;;;;;26.16;42.11;97504.59;5040025;28;20052;-66
2022/08/30 11:34:45;;;;;;;6.80;3.90;;;;;;;26.15;42.64;97502.16;5063864;28;20111;-64
2022/08/30 11:37:34;;;;;;;7.13;4.13;;;;;;;26.16;43.00;97496.28;5047177;28;20032;-68
2022/08/30 11:40:21;;;;;;;5.95;3.70;;;;;;;26.19;42.09;97491.97;5044342;28;20037;-65
2022/08/30 11:42:50;;;;;;;6.38;3.75;;;;;;;26.23;42.13;97498.44;5031198;28;20037;-65
2022/08/30 11:45:24;;;;;;;6.03;4.47;;;;;;;26.22;42.00;97499.59;5049999;28;20044;-64
2022/08/30 11:47:57;;;;;;;7.15;3.85;;;;;;;26.36;41.70;97507.56;5042160;28;20041;-63
2022/08/30 11:50:33;;;;;;;4.68;3.47;;;;;;;26.55;42.15;97506.06;5042555;28;20068;-61